Time;durP1;ratioP1;P1;durP2;ratioP2;P2;SDS_P1;SDS_P2;PMS_P1;PMS_P2;Temp;Humidity;BMP_temperature;BMP_pressure;BME280_temperature;BME280_humidity;BME280_pressure;Samples;Min_cycle;Max_cycle;Signal;HPM_P1;HPM_P2
2021/10/21 00:00:28;;;;;;;40.43;27.97;;;;;;;;;;5009818;28;20455;-71
2021/10/21 00:02:54;;;;;;;42.97;29.50;;;;;;;;;;5009420;28;20834;-72
2021/10/21 00:05:21;;;;;;;40.87;27.77;;;;;;;;;;5019219;28;21207;-71
2021/10/21 00:07:49;;;;;;;41.40;27.67;;;;;;;;;;4999322;28;20553;-72
2021/10/21 00:10:16;;;;;;;41.57;27.50;;;;;;;;;;5019005;28;20440;-72
2021/10/21 00:12:43;;;;;;;38.73;27.57;;;;;;;;;;5002144;28;20443;-73
2021/10/21 00:15:11;;;;;;;41.37;26.63;;;;;;;;;;5012211;28;20969;-75
2021/10/21 00:17:38;;;;;;;38.53;26.97;;;;;;;;;;5019342;28;20452;-74
2021/10/21 00:20:06;;;;;;;43.03;27.63;;;;;;;;;;5026330;28;22568;-76
2021/10/21 00:22:33;;;;;;;40.13;27.07;;;;;;;;;;5019173;28;20452;-73
2021/10/21 00:25:00;;;;;;;41.20;28.10;;;;;;;;;;5028297;28;20451;-75
2021/10/21 00:27:27;;;;;;;47.60;27.73;;;;;;;;;;5009255;28;20532;-75
2021/10/21 00:29:53;;;;;;;39.27;27.87;;;;;;;;;;5023394;28;20443;-76
2021/10/21 00:32:20;;;;;;;38.33;26.07;;;;;;;;;;5028771;28;20929;-75
2021/10/21 00:34:47;;;;;;;42.73;29.03;;;;;;;;;;5017385;28;20440;-75
2021/10/21 00:37:14;;;;;;;39.67;25.83;;;;;;;;;;5006730;28;20444;-74
2021/10/21 00:39:40;;;;;;;42.60;27.93;;;;;;;;;;5019312;28;20494;-75
2021/10/21 00:42:07;;;;;;;40.10;27.37;;;;;;;;;;5018599;28;20440;-74
2021/10/21 00:44:34;;;;;;;34.70;24.50;;;;;;;;;;5029419;28;20436;-75
2021/10/21 00:47:01;;;;;;;37.40;25.57;;;;;;;;;;5013972;28;20451;-73
2021/10/21 00:49:28;;;;;;;36.67;26.37;;;;;;;;;;5020989;28;20462;-73
2021/10/21 00:51:54;;;;;;;39.50;26.67;;;;;;;;;;5012900;28;20452;-73
2021/10/21 00:54:21;;;;;;;37.63;25.50;;;;;;;;;;5012109;28;20441;-73
2021/10/21 00:56:51;;;;;;;39.00;26.07;;;;;;;;;;5010250;28;20478;-73
2021/10/21 00:59:19;;;;;;;35.93;25.17;;;;;;;;;;5020025;28;20581;-74
2021/10/21 01:01:46;;;;;;;39.40;26.23;;;;;;;;;;5005883;28;20440;-74
2021/10/21 01:04:13;;;;;;;37.90;24.57;;;;;;;;;;4997379;28;20531;-72
2021/10/21 01:06:41;;;;;;;36.83;24.10;;;;;;;;;;5007724;28;20463;-73
2021/10/21 01:09:08;;;;;;;38.03;23.53;;;;;;;;;;4999823;28;21346;-72
2021/10/21 01:11:38;;;;;;;37.43;23.07;;;;;;;;;;5002086;28;20444;-72
2021/10/21 01:14:05;;;;;;;37.97;22.83;;;;;;;;;;5009914;28;20448;-71
2021/10/21 01:16:32;;;;;;;33.43;21.73;;;;;;;;;;4998764;28;20456;-70
2021/10/21 01:18:59;;;;;;;33.57;22.97;;;;;;;;;;5019117;28;20978;-72
2021/10/21 01:21:26;;;;;;;38.10;23.03;;;;;;;;;;5016365;28;20452;-71
2021/10/21 01:23:53;;;;;;;37.60;23.77;;;;;;;;;;5009474;28;20535;-74
2021/10/21 01:26:20;;;;;;;34.57;23.50;;;;;;;;;;5028711;28;20436;-73
2021/10/21 01:28:46;;;;;;;37.70;23.77;;;;;;;;;;5031366;28;20442;-72
2021/10/21 01:31:13;;;;;;;31.73;22.43;;;;;;;;;;5031664;28;20975;-72
2021/10/21 01:33:40;;;;;;;38.23;24.07;;;;;;;;;;5032100;28;20448;-73
2021/10/21 01:36:10;;;;;;;34.40;23.10;;;;;;;;;;5007538;28;20443;-73
2021/10/21 01:38:39;;;;;;;33.47;23.50;;;;;;;;;;5015934;28;20482;-70
2021/10/21 01:41:06;;;;;;;36.40;23.20;;;;;;;;;;5020340;28;20542;-70
2021/10/21 01:43:33;;;;;;;36.70;23.70;;;;;;;;;;5025718;28;20837;-71
2021/10/21 01:45:59;;;;;;;39.17;25.67;;;;;;;;;;5031934;28;20498;-70
2021/10/21 01:48:26;;;;;;;38.93;26.07;;;;;;;;;;5030183;28;20801;-71
2021/10/21 01:50:53;;;;;;;35.47;24.90;;;;;;;;;;5022892;28;20901;-73
2021/10/21 01:53:20;;;;;;;39.73;25.23;;;;;;;;;;5026782;28;20452;-73
2021/10/21 01:55:47;;;;;;;36.13;24.73;;;;;;;;;;5024555;28;20531;-75
2021/10/21 01:58:13;;;;;;;36.13;24.83;;;;;;;;;;5007809;28;20453;-73
2021/10/21 02:00:40;;;;;;;38.97;25.20;;;;;;;;;;5002754;28;20507;-73
2021/10/21 02:03:07;;;;;;;36.60;24.10;;;;;;;;;;5014386;28;20506;-71
2021/10/21 02:05:34;;;;;;;39.13;24.40;;;;;;;;;;5015341;28;20445;-72
2021/10/21 02:08:03;;;;;;;35.70;24.40;;;;;;;;;;5019618;28;20483;-73
2021/10/21 02:10:30;;;;;;;36.90;24.10;;;;;;;;;;5030185;28;20815;-72
2021/10/21 02:12:57;;;;;;;35.77;23.37;;;;;;;;;;5024443;28;20825;-73
2021/10/21 02:15:23;;;;;;;37.40;23.77;;;;;;;;;;5017911;28;20837;-75
2021/10/21 02:17:50;;;;;;;36.60;23.67;;;;;;;;;;5029228;28;20444;-71
2021/10/21 02:20:17;;;;;;;35.00;22.57;;;;;;;;;;5026874;28;20932;-71
2021/10/21 02:22:45;;;;;;;33.23;23.10;;;;;;;;;;5028950;28;20440;-72
2021/10/21 02:25:12;;;;;;;34.10;23.30;;;;;;;;;;5031104;28;20447;-72
2021/10/21 02:27:40;;;;;;;36.60;23.00;;;;;;;;;;5018205;28;20432;-70
2021/10/21 02:30:07;;;;;;;38.27;22.50;;;;;;;;;;5016958;28;21225;-74
2021/10/21 02:32:34;;;;;;;32.90;22.70;;;;;;;;;;5021639;28;20443;-73
2021/10/21 02:35:01;;;;;;;34.27;22.47;;;;;;;;;;5017377;28;20448;-73
2021/10/21 02:37:28;;;;;;;34.13;22.10;;;;;;;;;;5013160;28;20447;-73
2021/10/21 02:39:54;;;;;;;30.87;22.00;;;;;;;;;;5014809;28;20577;-71
2021/10/21 02:42:21;;;;;;;33.37;21.93;;;;;;;;;;5026626;28;20452;-73
2021/10/21 02:44:48;;;;;;;31.30;21.55;;;;;;;;;;5029355;28;20513;-71
2021/10/21 02:47:15;;;;;;;34.23;22.80;;;;;;;;;;5028315;28;20201;-72
2021/10/21 02:49:41;;;;;;;34.00;21.53;;;;;;;;;;5030799;28;20458;-72
2021/10/21 02:52:08;;;;;;;35.30;22.90;;;;;;;;;;5017557;28;20823;-71
2021/10/21 02:54:35;;;;;;;30.47;22.20;;;;;;;;;;5015031;28;20491;-70
2021/10/21 02:57:02;;;;;;;29.87;20.47;;;;;;;;;;5000247;28;20443;-71
2021/10/21 02:59:29;;;;;;;29.70;20.87;;;;;;;;;;5008560;28;20488;-70
2021/10/21 03:01:56;;;;;;;31.23;21.77;;;;;;;;;;5003081;28;20457;-73
2021/10/21 03:04:23;;;;;;;33.13;21.40;;;;;;;;;;5018699;28;20829;-72
2021/10/21 03:06:49;;;;;;;32.53;22.20;;;;;;;;;;5015968;28;20966;-74
2021/10/21 03:09:16;;;;;;;33.33;20.53;;;;;;;;;;5030793;28;20436;-72
2021/10/21 03:11:43;;;;;;;33.47;21.20;;;;;;;;;;5017240;28;20445;-72
2021/10/21 03:14:10;;;;;;;30.97;20.40;;;;;;;;;;5008097;28;20440;-72
2021/10/21 03:16:40;;;;;;;31.87;21.43;;;;;;;;;;5016254;28;20440;-75
2021/10/21 03:19:09;;;;;;;33.53;21.33;;;;;;;;;;5007837;28;20490;-72
2021/10/21 03:21:37;;;;;;;33.07;21.93;;;;;;;;;;5008767;28;20440;-74
2021/10/21 03:24:04;;;;;;;31.20;20.70;;;;;;;;;;5028260;28;20436;-73
2021/10/21 03:26:31;;;;;;;33.70;21.13;;;;;;;;;;5030328;28;20444;-74
2021/10/21 03:28:58;;;;;;;29.13;20.30;;;;;;;;;;5016527;28;20444;-74
2021/10/21 03:31:29;;;;;;;33.43;19.00;;;;;;;;;;5030187;28;20462;-74
2021/10/21 03:33:56;;;;;;;28.83;20.00;;;;;;;;;;5011335;28;20435;-76
2021/10/21 03:36:23;;;;;;;33.13;20.97;;;;;;;;;;5005699;28;20445;-74
2021/10/21 03:38:53;;;;;;;31.27;20.83;;;;;;;;;;5015881;28;20479;-75
2021/10/21 03:41:21;;;;;;;28.50;19.97;;;;;;;;;;5018286;28;20444;-73
2021/10/21 03:43:48;;;;;;;30.63;20.83;;;;;;;;;;5015627;28;20731;-75
2021/10/21 03:46:15;;;;;;;34.17;21.37;;;;;;;;;;5000018;28;20449;-78
2021/10/21 03:48:41;;;;;;;33.43;20.83;;;;;;;;;;5021071;28;20447;-73
2021/10/21 03:51:11;;;;;;;28.23;20.87;;;;;;;;;;5008603;28;20561;-76
2021/10/21 03:53:37;;;;;;;34.00;21.77;;;;;;;;;;5014331;28;20444;-73
2021/10/21 03:56:04;;;;;;;34.03;20.17;;;;;;;;;;5015822;28;20444;-73
2021/10/21 03:58:31;;;;;;;34.43;20.70;;;;;;;;;;5017336;28;20860;-74
2021/10/21 04:00:58;;;;;;;32.03;20.00;;;;;;;;;;5017190;28;20440;-73
2021/10/21 04:03:25;;;;;;;27.37;18.70;;;;;;;;;;5028582;28;20473;-71
2021/10/21 04:05:51;;;;;;;29.53;18.80;;;;;;;;;;5021915;28;20567;-73
2021/10/21 04:08:18;;;;;;;33.20;21.50;;;;;;;;;;5016321;28;20495;-73
2021/10/21 04:10:46;;;;;;;31.27;19.40;;;;;;;;;;5020015;28;21016;-73
2021/10/21 04:13:13;;;;;;;29.07;20.60;;;;;;;;;;5024844;28;20440;-73
2021/10/21 04:15:39;;;;;;;32.43;20.17;;;;;;;;;;5016675;28;20537;-74
2021/10/21 04:18:06;;;;;;;31.50;20.40;;;;;;;;;;5023727;28;20440;-72
2021/10/21 04:20:33;;;;;;;33.80;21.00;;;;;;;;;;5029332;28;20475;-72
2021/10/21 04:23:00;;;;;;;31.27;21.80;;;;;;;;;;5031140;28;20440;-74
2021/10/21 04:25:27;;;;;;;40.63;23.03;;;;;;;;;;5032425;28;20555;-75
2021/10/21 04:27:54;;;;;;;37.73;25.57;;;;;;;;;;5028717;28;20444;-71
2021/10/21 04:30:21;;;;;;;47.83;28.33;;;;;;;;;;5028922;28;20438;-74
2021/10/21 04:32:48;;;;;;;46.20;29.33;;;;;;;;;;5029146;28;20444;-76
2021/10/21 04:35:15;;;;;;;53.33;34.77;;;;;;;;;;5026941;28;20443;-76
2021/10/21 04:37:41;;;;;;;55.40;36.33;;;;;;;;;;5016439;28;20799;-74
2021/10/21 04:40:08;;;;;;;59.23;35.87;;;;;;;;;;5029094;28;20480;-74
2021/10/21 04:42:36;;;;;;;58.23;38.37;;;;;;;;;;5036661;28;20957;-72
2021/10/21 04:45:03;;;;;;;66.47;34.13;;;;;;;;;;5021573;28;20447;-74
2021/10/21 04:47:30;;;;;;;66.33;40.73;;;;;;;;;;5026807;28;20455;-71
2021/10/21 04:49:56;;;;;;;73.70;47.27;;;;;;;;;;5019470;28;20440;-74
2021/10/21 04:52:23;;;;;;;77.33;46.83;;;;;;;;;;5015203;28;20444;-76
2021/10/21 04:54:50;;;;;;;82.23;49.57;;;;;;;;;;5022162;28;20435;-76
2021/10/21 04:57:17;;;;;;;83.53;54.60;;;;;;;;;;5022839;28;20465;-70
2021/10/21 04:59:43;;;;;;;63.83;39.77;;;;;;;;;;5021270;28;20553;-76
2021/10/21 05:02:10;;;;;;;73.80;39.53;;;;;;;;;;5030849;28;20443;-74
2021/10/21 05:04:37;;;;;;;74.53;40.50;;;;;;;;;;5026049;28;20436;-74
2021/10/21 05:07:04;;;;;;;66.57;41.10;;;;;;;;;;5032191;28;20535;-74
2021/10/21 05:09:30;;;;;;;73.97;44.03;;;;;;;;;;5026627;28;20466;-76
2021/10/21 05:11:58;;;;;;;83.83;48.53;;;;;;;;;;5029589;28;20465;-74
2021/10/21 05:14:25;;;;;;;94.03;49.30;;;;;;;;;;5032017;28;20977;-77
2021/10/21 05:16:52;;;;;;;80.83;48.90;;;;;;;;;;5025039;28;20432;-74
2021/10/21 05:19:19;;;;;;;97.00;50.73;;;;;;;;;;5032932;28;20470;-74
2021/10/21 05:21:46;;;;;;;87.20;48.87;;;;;;;;;;5031776;28;20443;-73
2021/10/21 05:24:12;;;;;;;79.37;46.60;;;;;;;;;;5024111;28;20462;-76
2021/10/21 05:26:39;;;;;;;84.77;46.60;;;;;;;;;;5026112;28;20431;-76
2021/10/21 05:29:06;;;;;;;73.13;43.13;;;;;;;;;;5022381;28;20529;-74
2021/10/21 05:31:33;;;;;;;69.90;44.20;;;;;;;;;;5020111;28;20470;-74
2021/10/21 05:33:59;;;;;;;80.47;43.40;;;;;;;;;;5029028;28;20445;-74
2021/10/21 05:36:26;;;;;;;72.07;44.53;;;;;;;;;;5031960;28;20444;-75
2021/10/21 05:38:53;;;;;;;68.03;42.13;;;;;;;;;;5015274;28;20787;-74
2021/10/21 05:41:20;;;;;;;67.97;41.43;;;;;;;;;;5022287;28;20578;-74
2021/10/21 05:43:46;;;;;;;74.87;40.80;;;;;;;;;;5031719;28;20439;-73
2021/10/21 05:46:13;;;;;;;73.33;43.63;;;;;;;;;;5031729;28;20470;-74
2021/10/21 05:48:40;;;;;;;60.87;40.03;;;;;;;;;;5013580;28;20456;-75
2021/10/21 05:51:07;;;;;;;66.40;41.47;;;;;;;;;;5023591;28;20943;-75
2021/10/21 05:53:33;;;;;;;82.23;43.17;;;;;;;;;;5028503;28;21303;-74
2021/10/21 05:56:00;;;;;;;89.87;44.33;;;;;;;;;;5012205;28;20433;-76
2021/10/21 05:58:27;;;;;;;77.50;42.93;;;;;;;;;;5025760;28;20475;-75
2021/10/21 06:00:55;;;;;;;78.30;41.67;;;;;;;;;;5012151;28;20480;-74
2021/10/21 06:03:21;;;;;;;79.30;43.00;;;;;;;;;;5011430;28;20440;-74
2021/10/21 06:05:48;;;;;;;114.93;65.83;;;;;;;;;;5018359;28;20486;-75
2021/10/21 06:08:15;;;;;;;122.83;71.50;;;;;;;;;;5031353;28;20475;-74
2021/10/21 06:10:42;;;;;;;144.83;86.60;;;;;;;;;;5027013;28;20436;-74
2021/10/21 06:13:09;;;;;;;134.37;76.97;;;;;;;;;;5010876;28;20441;-74
2021/10/21 06:15:35;;;;;;;103.43;59.60;;;;;;;;;;5020460;28;20539;-75
2021/10/21 06:18:04;;;;;;;79.87;47.17;;;;;;;;;;5033489;28;20463;-75
2021/10/21 06:20:31;;;;;;;59.80;39.63;;;;;;;;;;5014901;28;20719;-74
2021/10/21 06:22:59;;;;;;;49.83;36.07;;;;;;;;;;5012098;28;20442;-76
2021/10/21 06:25:26;;;;;;;62.27;34.07;;;;;;;;;;5030234;28;20446;-74
2021/10/21 06:27:55;;;;;;;54.23;36.03;;;;;;;;;;5031315;28;20444;-74
2021/10/21 06:30:22;;;;;;;58.43;36.10;;;;;;;;;;5031356;28;20456;-74
2021/10/21 06:32:50;;;;;;;57.80;37.83;;;;;;;;;;5031406;28;20531;-74
2021/10/21 06:35:17;;;;;;;69.97;41.90;;;;;;;;;;5031935;28;20432;-74
2021/10/21 06:37:45;;;;;;;60.53;40.53;;;;;;;;;;5031188;28;20440;-74
2021/10/21 06:40:13;;;;;;;62.00;41.30;;;;;;;;;;5031070;28;20492;-75
2021/10/21 06:42:39;;;;;;;65.37;40.87;;;;;;;;;;5030338;28;20941;-71
2021/10/21 06:45:07;;;;;;;60.23;39.70;;;;;;;;;;5018891;28;20448;-72
2021/10/21 06:47:34;;;;;;;64.70;38.43;;;;;;;;;;5019614;28;20448;-74
2021/10/21 06:50:01;;;;;;;65.00;39.20;;;;;;;;;;5025103;28;20523;-71
2021/10/21 06:52:27;;;;;;;69.60;39.37;;;;;;;;;;5010845;28;20444;-73
2021/10/21 06:54:54;;;;;;;70.40;43.13;;;;;;;;;;5025019;28;20436;-70
2021/10/21 06:57:21;;;;;;;64.03;41.27;;;;;;;;;;5011163;28;20895;-72
2021/10/21 06:59:48;;;;;;;69.10;41.80;;;;;;;;;;5011729;28;20484;-71
2021/10/21 07:02:15;;;;;;;66.27;42.07;;;;;;;;;;5015350;28;20450;-73
2021/10/21 07:04:42;;;;;;;64.53;39.30;;;;;;;;;;5030693;28;20501;-73
2021/10/21 07:07:26;;;;;;;51.60;35.40;;;;;;;;;;5010318;28;20488;-74
2021/10/21 07:09:53;;;;;;;56.07;36.00;;;;;;;;;;5022647;28;20550;-74
2021/10/21 07:12:20;;;;;;;51.03;34.53;;;;;;;;;;5024925;28;20807;-73
2021/10/21 07:14:47;;;;;;;56.00;35.90;;;;;;;;;;5011262;28;20456;-72
2021/10/21 07:17:13;;;;;;;54.13;36.73;;;;;;;;;;5030306;28;20824;-73
2021/10/21 07:19:40;;;;;;;61.87;38.07;;;;;;;;;;5030391;28;20949;-73
2021/10/21 07:22:07;;;;;;;56.23;35.40;;;;;;;;;;5029521;28;20462;-72
2021/10/21 07:24:34;;;;;;;56.93;34.20;;;;;;;;;;5018212;28;20464;-71
2021/10/21 07:27:00;;;;;;;56.90;35.07;;;;;;;;;;5027621;28;20447;-72
2021/10/21 07:29:27;;;;;;;55.37;35.07;;;;;;;;;;5020758;28;20544;-75
2021/10/21 07:31:54;;;;;;;58.97;36.90;;;;;;;;;;5024146;28;20968;-73
2021/10/21 07:34:20;;;;;;;59.10;36.37;;;;;;;;;;5010738;28;20508;-74
2021/10/21 07:36:47;;;;;;;48.47;34.20;;;;;;;;;;5024398;28;20452;-74
2021/10/21 07:39:14;;;;;;;54.17;36.60;;;;;;;;;;5030481;28;20436;-72
2021/10/21 07:41:42;;;;;;;48.43;32.87;;;;;;;;;;5031750;28;20487;-74
2021/10/21 07:44:08;;;;;;;49.57;34.77;;;;;;;;;;5034127;28;20447;-74
2021/10/21 07:46:35;;;;;;;50.77;34.33;;;;;;;;;;5028648;28;20480;-75
2021/10/21 07:49:02;;;;;;;50.50;32.00;;;;;;;;;;5018452;28;20482;-74
2021/10/21 07:51:31;;;;;;;52.30;33.97;;;;;;;;;;5029373;28;20988;-75
2021/10/21 07:53:59;;;;;;;52.43;33.40;;;;;;;;;;5010880;28;21024;-73
2021/10/21 07:56:28;;;;;;;43.13;33.10;;;;;;;;;;5010134;28;20934;-75
2021/10/21 07:58:55;;;;;;;49.03;31.37;;;;;;;;;;5010051;28;20447;-74
2021/10/21 08:01:22;;;;;;;48.67;32.27;;;;;;;;;;5009966;28;20492;-73
2021/10/21 08:03:49;;;;;;;48.27;34.33;;;;;;;;;;5010301;28;20437;-75
2021/10/21 08:06:15;;;;;;;62.73;39.17;;;;;;;;;;5009938;28;20536;-72
2021/10/21 08:08:42;;;;;;;64.57;44.73;;;;;;;;;;5023302;28;20444;-72
2021/10/21 08:11:09;;;;;;;57.80;40.70;;;;;;;;;;5017695;28;20813;-70
2021/10/21 08:13:35;;;;;;;60.87;44.57;;;;;;;;;;5028760;28;20440;-71
2021/10/21 08:16:03;;;;;;;64.33;45.53;;;;;;;;;;5021106;28;20886;-72
2021/10/21 08:18:29;;;;;;;72.93;47.03;;;;;;;;;;5029857;28;20459;-72
2021/10/21 08:20:56;;;;;;;63.40;46.20;;;;;;;;;;5029794;28;20471;-72
2021/10/21 08:23:23;;;;;;;66.20;46.03;;;;;;;;;;5028662;28;20447;-71
2021/10/21 08:25:50;;;;;;;61.43;45.47;;;;;;;;;;5021562;28;20448;-74
2021/10/21 08:28:17;;;;;;;63.40;44.03;;;;;;;;;;5023235;28;20456;-73
2021/10/21 08:30:43;;;;;;;62.97;43.97;;;;;;;;;;5029877;28;20432;-72
2021/10/21 08:33:11;;;;;;;57.87;42.03;;;;;;;;;;5028886;28;20479;-72
2021/10/21 08:35:38;;;;;;;59.67;43.27;;;;;;;;;;5029559;28;20820;-74
2021/10/21 08:38:05;;;;;;;65.03;44.70;;;;;;;;;;5033467;28;21003;-74
2021/10/21 08:40:33;;;;;;;49.77;35.27;;;;;;;;;;5030227;28;20827;-72
2021/10/21 08:43:00;;;;;;;49.50;37.40;;;;;;;;;;5022990;28;20435;-71
2021/10/21 08:45:27;;;;;;;56.00;39.20;;;;;;;;;;5033167;28;20478;-72
2021/10/21 08:48:02;;;;;;;56.67;38.80;;;;;;;;;;5020292;28;20982;-72
2021/10/21 08:50:30;;;;;;;48.90;36.00;;;;;;;;;;5013749;28;20944;-71
2021/10/21 08:52:56;;;;;;;48.83;37.07;;;;;;;;;;5013065;28;20519;-71
2021/10/21 08:55:23;;;;;;;51.13;35.20;;;;;;;;;;5031619;28;20441;-72
2021/10/21 08:57:50;;;;;;;47.93;34.57;;;;;;;;;;5032764;28;20437;-72
2021/10/21 09:00:18;;;;;;;47.60;35.23;;;;;;;;;;5033035;28;20479;-72
2021/10/21 09:05:30;;;;;;;47.40;35.53;;;;;;;;;;5028320;28;20447;-71
2021/10/21 09:08:04;;;;;;;49.70;37.80;;;;;;;;;;5032247;28;20566;-72
2021/10/21 09:10:31;;;;;;;46.53;35.90;;;;;;;;;;5016007;28;20437;-72
2021/10/21 09:12:59;;;;;;;52.53;34.27;;;;;;;;;;5021345;28;20435;-73
2021/10/21 09:15:26;;;;;;;52.17;33.77;;;;;;;;;;5033391;28;20444;-72
2021/10/21 09:17:54;;;;;;;44.83;33.67;;;;;;;;;;5019817;28;20449;-73
2021/10/21 09:20:38;;;;;;;47.00;34.20;;;;;;;;;;5026624;28;20464;-74
2021/10/21 09:23:09;;;;;;;42.87;33.23;;;;;;;;;;5025763;28;20440;-72
2021/10/21 09:25:37;;;;;;;52.43;35.67;;;;;;;;;;5019391;28;20519;-72
2021/10/21 09:28:18;;;;;;;32.30;27.40;;;;;;;;;;5035441;28;20451;-73
2021/10/21 09:30:52;;;;;;;36.17;29.10;;;;;;;;;;5017326;28;20535;-72
2021/10/21 09:33:19;;;;;;;44.33;31.27;;;;;;;;;;5014081;28;20929;-73
2021/10/21 09:36:06;;;;;;;42.00;31.53;;;;;;;;;;5018463;28;20805;-73
2021/10/21 09:38:33;;;;;;;41.67;26.93;;;;;;;;;;5032915;28;20440;-73
2021/10/21 09:41:21;;;;;;;35.27;26.23;;;;;;;;;;5024963;28;20464;-73
2021/10/21 09:43:51;;;;;;;28.53;23.47;;;;;;;;;;5028268;28;20447;-72
2021/10/21 09:46:33;;;;;;;34.30;23.60;;;;;;;;;;5031793;28;20444;-72
2021/10/21 09:49:16;;;;;;;27.43;21.17;;;;;;;;;;5011651;28;20520;-72
2021/10/21 09:51:45;;;;;;;29.73;23.67;;;;;;;;;;5011699;28;20451;-75
2021/10/21 09:54:12;;;;;;;31.87;22.73;;;;;;;;;;5021161;28;20443;-72
2021/10/21 09:56:57;;;;;;;31.90;22.37;;;;;;;;;;5031449;28;20443;-73
2021/10/21 09:59:36;;;;;;;32.10;23.90;;;;;;;;;;5022769;28;20440;-72
2021/10/21 10:02:07;;;;;;;32.63;24.87;;;;;;;;;;5028986;28;20549;-71
2021/10/21 10:04:34;;;;;;;29.00;23.77;;;;;;;;;;5031820;28;20443;-74
2021/10/21 10:07:01;;;;;;;30.03;25.03;;;;;;;;;;5032372;28;20480;-71
2021/10/21 10:09:30;;;;;;;33.23;24.77;;;;;;;;;;5025641;28;20444;-72
2021/10/21 10:11:59;;;;;;;29.00;24.43;;;;;;;;;;5027159;28;20815;-71
2021/10/21 10:14:27;;;;;;;35.47;25.27;;;;;;;;;;5021842;28;20447;-71
2021/10/21 10:16:54;;;;;;;30.93;22.63;;;;;;;;;;5018329;28;20444;-72
2021/10/21 10:19:21;;;;;;;34.27;23.53;;;;;;;;;;5021653;28;20506;-72
2021/10/21 10:21:51;;;;;;;29.73;24.87;;;;;;;;;;5028794;28;20945;-72
2021/10/21 10:24:18;;;;;;;29.40;24.27;;;;;;;;;;5033026;28;20444;-72
2021/10/21 10:26:45;;;;;;;35.33;24.13;;;;;;;;;;5031376;28;20497;-73
2021/10/21 10:29:13;;;;;;;30.00;23.77;;;;;;;;;;5024066;28;20452;-71
2021/10/21 10:31:49;;;;;;;33.17;25.80;;;;;;;;;;5011207;28;20583;-73
2021/10/21 10:34:48;;;;;;;41.13;26.10;;;;;;;;;;5011704;28;20441;-73
2021/10/21 10:37:21;;;;;;;39.13;27.60;;;;;;;;;;5012022;28;20463;-73
2021/10/21 10:39:48;;;;;;;38.13;28.13;;;;;;;;;;5020708;28;20472;-71
2021/10/21 10:42:15;;;;;;;36.63;28.07;;;;;;;;;;5014263;28;20483;-72
2021/10/21 10:44:42;;;;;;;33.00;26.80;;;;;;;;;;5031446;28;20861;-73
2021/10/21 10:47:10;;;;;;;36.07;25.00;;;;;;;;;;5030574;28;20440;-72
2021/10/21 10:49:36;;;;;;;35.53;25.23;;;;;;;;;;5018711;28;20439;-71
2021/10/21 10:52:09;;;;;;;33.90;24.77;;;;;;;;;;5024650;28;20448;-70
2021/10/21 10:54:51;;;;;;;30.00;23.17;;;;;;;;;;5011216;28;20946;-71
2021/10/21 10:57:23;;;;;;;30.50;22.37;;;;;;;;;;5017038;28;20547;-72
2021/10/21 10:59:54;;;;;;;29.67;22.07;;;;;;;;;;5018260;28;20687;-72
2021/10/21 11:02:31;;;;;;;28.40;22.67;;;;;;;;;;5024386;28;20490;-72
2021/10/21 11:04:58;;;;;;;25.43;22.07;;;;;;;;;;5026852;28;20569;-72
2021/10/21 11:07:41;;;;;;;24.07;21.13;;;;;;;;;;5019041;28;20549;-72
2021/10/21 11:10:20;;;;;;;22.90;18.07;;;;;;;;;;5030390;28;20568;-72
2021/10/21 11:12:48;;;;;;;18.23;16.10;;;;;;;;;;5018091;28;20431;-74
2021/10/21 11:15:31;;;;;;;20.27;17.40;;;;;;;;;;5021854;28;20546;-72
2021/10/21 11:17:58;;;;;;;24.63;19.47;;;;;;;;;;5030617;28;20581;-73
2021/10/21 11:20:28;;;;;;;25.77;18.57;;;;;;;;;;5025030;28;20288;-71
2021/10/21 11:22:55;;;;;;;22.93;18.87;;;;;;;;;;5022666;28;20447;-75
2021/10/21 11:25:28;;;;;;;27.13;19.63;;;;;;;;;;5030662;28;20717;-73
2021/10/21 11:27:56;;;;;;;22.93;18.13;;;;;;;;;;5030282;28;20216;-72
2021/10/21 11:30:30;;;;;;;22.07;18.50;;;;;;;;;;5030496;28;20487;-72
2021/10/21 11:33:06;;;;;;;24.37;18.13;;;;;;;;;;5031250;28;20193;-72
2021/10/21 11:35:34;;;;;;;23.30;18.27;;;;;;;;;;5012186;28;20228;-72
2021/10/21 11:38:11;;;;;;;22.53;19.57;;;;;;;;;;5021031;28;20701;-72
2021/10/21 11:40:41;;;;;;;20.87;18.60;;;;;;;;;;5016713;28;20196;-73
2021/10/21 11:43:22;;;;;;;23.40;19.57;;;;;;;;;;5019229;28;20205;-73
2021/10/21 11:45:52;;;;;;;21.90;18.27;;;;;;;;;;5024013;28;20197;-73
2021/10/21 11:48:20;;;;;;;26.97;19.57;;;;;;;;;;5010391;28;20201;-73
2021/10/21 11:50:48;;;;;;;25.07;21.00;;;;;;;;;;5019280;28;20197;-73
2021/10/21 11:53:19;;;;;;;21.23;18.73;;;;;;;;;;5029667;28;20254;-74
2021/10/21 11:55:47;;;;;;;25.30;18.77;;;;;;;;;;5022659;28;20186;-74
2021/10/21 11:58:15;;;;;;;22.67;18.63;;;;;;;;;;5010403;28;20202;-73
2021/10/21 12:00:43;;;;;;;24.50;19.47;;;;;;;;;;5016727;28;20196;-72
2021/10/21 12:03:11;;;;;;;27.07;19.17;;;;;;;;;;5029536;28;20201;-72
2021/10/21 12:05:42;;;;;;;25.80;19.33;;;;;;;;;;5016219;28;20185;-73
2021/10/21 12:08:11;;;;;;;24.83;19.63;;;;;;;;;;5029891;28;20240;-74
2021/10/21 12:10:43;;;;;;;21.87;18.80;;;;;;;;;;5030437;28;20189;-72
2021/10/21 12:13:21;;;;;;;21.53;17.33;;;;;;;;;;5029807;28;20207;-72
2021/10/21 12:15:49;;;;;;;22.13;18.07;;;;;;;;;;5012139;28;20193;-73
2021/10/21 12:18:17;;;;;;;20.53;16.83;;;;;;;;;;5011926;28;20197;-73
2021/10/21 12:20:49;;;;;;;22.13;18.10;;;;;;;;;;5030029;28;20248;-73
2021/10/21 12:23:17;;;;;;;22.70;16.70;;;;;;;;;;5029578;28;20189;-74
2021/10/21 12:25:48;;;;;;;20.90;16.87;;;;;;;;;;5022670;28;20205;-74
2021/10/21 12:28:14;;;;;;;19.10;15.53;;;;;;;;;;5023680;28;20280;-72
2021/10/21 12:30:41;;;;;;;20.67;15.90;;;;;;;;;;5016451;28;20193;-74
2021/10/21 12:33:09;;;;;;;21.13;15.37;;;;;;;;;;5030165;28;20284;-71
2021/10/21 12:35:51;;;;;;;21.03;15.43;;;;;;;;;;5025403;28;20922;-72
2021/10/21 12:38:18;;;;;;;24.70;15.57;;;;;;;;;;5022442;28;20254;-72
2021/10/21 12:40:45;;;;;;;20.30;17.00;;;;;;;;;;5029884;28;20622;-71
2021/10/21 12:43:17;;;;;;;20.47;14.90;;;;;;;;;;5028504;28;20213;-71
2021/10/21 12:45:43;;;;;;;18.30;15.70;;;;;;;;;;5025465;28;20558;-72
2021/10/21 12:48:20;;;;;;;19.83;14.97;;;;;;;;;;5009212;28;20202;-72
2021/10/21 12:50:47;;;;;;;17.10;14.47;;;;;;;;;;5010052;28;20199;-73
2021/10/21 12:53:17;;;;;;;21.33;15.77;;;;;;;;;;5025755;28;20201;-72
2021/10/21 12:55:44;;;;;;;21.30;15.63;;;;;;;;;;5009415;28;20201;-70
2021/10/21 12:58:20;;;;;;;22.73;15.00;;;;;;;;;;5022392;28;20216;-71
2021/10/21 13:00:48;;;;;;;19.37;14.23;;;;;;;;;;5022980;28;20198;-73
2021/10/21 13:03:21;;;;;;;21.33;15.47;;;;;;;;;;5021418;28;20332;-70
2021/10/21 13:05:49;;;;;;;19.27;14.20;;;;;;;;;;5015334;28;20550;-73
2021/10/21 13:08:16;;;;;;;17.53;13.63;;;;;;;;;;5028376;28;20721;-72
2021/10/21 13:13:21;;;;;;;25.70;13.93;;;;;;;;;;5024882;28;20266;-71
2021/10/21 13:15:47;;;;;;;17.93;13.60;;;;;;;;;;5021940;28;20235;-72
2021/10/21 13:18:14;;;;;;;16.97;12.70;;;;;;;;;;5026474;28;20280;-71
2021/10/21 13:20:41;;;;;;;14.67;12.90;;;;;;;;;;5017004;28;20197;-69
2021/10/21 13:23:08;;;;;;;15.90;12.90;;;;;;;;;;5016836;28;20616;-70
2021/10/21 13:25:35;;;;;;;19.03;13.30;;;;;;;;;;5019167;28;20255;-70
2021/10/21 13:28:02;;;;;;;15.40;11.93;;;;;;;;;;5030231;28;20717;-70
2021/10/21 13:30:29;;;;;;;14.60;12.33;;;;;;;;;;5031520;28;20266;-69
2021/10/21 13:32:56;;;;;;;14.67;12.20;;;;;;;;;;5030843;28;20674;-71
2021/10/21 13:35:23;;;;;;;19.87;12.00;;;;;;;;;;5015315;28;20321;-71
2021/10/21 13:37:51;;;;;;;19.97;12.93;;;;;;;;;;5012168;28;20287;-70
2021/10/21 13:40:18;;;;;;;19.03;12.53;;;;;;;;;;5012795;28;20248;-67
2021/10/21 13:42:44;;;;;;;15.13;11.90;;;;;;;;;;5030204;28;20755;-70
2021/10/21 13:45:11;;;;;;;17.90;13.10;;;;;;;;;;5030826;28;20206;-71
2021/10/21 13:47:39;;;;;;;16.53;12.47;;;;;;;;;;5030672;28;20201;-72
2021/10/21 13:50:06;;;;;;;15.60;11.87;;;;;;;;;;5025716;28;20201;-71
2021/10/21 13:52:33;;;;;;;16.37;12.23;;;;;;;;;;5015829;28;20202;-71
2021/10/21 13:55:00;;;;;;;18.13;11.93;;;;;;;;;;5025440;28;20217;-71
2021/10/21 13:57:27;;;;;;;24.40;13.57;;;;;;;;;;5012585;28;20588;-70
2021/10/21 13:59:54;;;;;;;19.87;12.27;;;;;;;;;;5013943;28;20202;-73
2021/10/21 14:02:21;;;;;;;13.97;12.40;;;;;;;;;;5018302;28;20228;-70
2021/10/21 14:04:51;;;;;;;26.47;12.47;;;;;;;;;;5018244;28;20205;-70
2021/10/21 14:07:18;;;;;;;22.83;11.90;;;;;;;;;;5015648;28;20228;-70
2021/10/21 14:09:46;;;;;;;15.47;11.60;;;;;;;;;;5024300;28;20197;-72
2021/10/21 14:12:13;;;;;;;20.90;12.30;;;;;;;;;;5027597;28;20612;-70
2021/10/21 14:14:39;;;;;;;19.67;11.47;;;;;;;;;;5021454;28;20198;-72
2021/10/21 14:17:06;;;;;;;17.20;11.27;;;;;;;;;;5027267;28;20193;-70
2021/10/21 14:19:34;;;;;;;19.53;11.37;;;;;;;;;;5013551;28;20201;-70
2021/10/21 14:22:01;;;;;;;20.23;12.23;;;;;;;;;;5027295;28;20217;-70
2021/10/21 14:24:30;;;;;;;15.57;11.67;;;;;;;;;;5031438;28;20209;-70
2021/10/21 14:27:18;;;;;;;14.47;11.27;;;;;;;;;;5027205;28;20198;-70